createdAt,value
2022-10-09T00:00:16.749Z,1020.87
2022-10-09T00:01:16.760Z,1020.87
2022-10-09T00:02:19.770Z,1020.85
2022-10-09T00:03:16.736Z,1020.84
2022-10-09T00:04:16.731Z,1020.88
2022-10-09T00:05:16.773Z,1020.87
2022-10-09T00:06:16.726Z,1020.90
2022-10-09T00:07:16.719Z,1020.89
2022-10-09T00:08:16.716Z,1020.90
2022-10-09T00:09:16.711Z,1020.92
2022-10-09T00:10:16.711Z,1020.91
2022-10-09T00:11:16.708Z,1020.90
2022-10-09T00:12:16.698Z,1020.92
2022-10-09T00:13:16.695Z,1020.92
2022-10-09T00:14:16.691Z,1020.94
2022-10-09T00:15:16.685Z,1020.95
2022-10-09T00:16:16.739Z,1020.94
2022-10-09T00:17:16.677Z,1020.91
2022-10-09T00:18:16.694Z,1020.92
2022-10-09T00:19:16.669Z,1020.91
2022-10-09T00:20:16.666Z,1020.94
2022-10-09T00:21:16.660Z,1020.93
2022-10-09T00:22:16.659Z,1020.91
2022-10-09T00:23:16.698Z,1020.90
2022-10-09T00:24:16.651Z,1020.93
2022-10-09T00:25:16.647Z,1020.89
2022-10-09T00:26:16.652Z,1020.86
2022-10-09T00:27:16.642Z,1020.86
2022-10-09T00:28:16.698Z,1020.85
2022-10-09T00:29:16.627Z,1020.85
2022-10-09T00:30:16.624Z,1020.86
2022-10-09T00:31:16.756Z,1020.83
2022-10-09T00:32:16.615Z,1020.87
2022-10-09T00:33:16.609Z,1020.85
2022-10-09T00:34:16.628Z,1020.86
2022-10-09T00:35:16.602Z,1020.86
2022-10-09T00:36:16.598Z,1020.83
2022-10-09T00:37:16.595Z,1020.80
2022-10-09T00:38:16.587Z,1020.81
2022-10-09T00:39:16.583Z,1020.85
2022-10-09T00:40:16.588Z,1020.77
2022-10-09T00:41:16.575Z,1020.77
2022-10-09T00:42:16.574Z,1020.78
2022-10-09T00:43:16.566Z,1020.76
2022-10-09T00:44:16.565Z,1020.78
2022-10-09T00:45:16.559Z,1020.77
2022-10-09T00:46:16.621Z,1020.76
2022-10-09T00:47:16.550Z,1020.75
2022-10-09T00:48:16.550Z,1020.76
2022-10-09T00:49:16.543Z,1020.77
2022-10-09T00:50:16.554Z,1020.78
2022-10-09T00:51:16.533Z,1020.80
2022-10-09T00:52:16.535Z,1020.77
2022-10-09T00:53:16.528Z,1020.77
2022-10-09T00:54:16.526Z,1020.79
2022-10-09T00:55:16.518Z,1020.77
2022-10-09T00:56:16.511Z,1020.78
2022-10-09T00:57:16.507Z,1020.74
2022-10-09T00:58:16.503Z,1020.74
2022-10-09T00:59:16.497Z,1020.73
2022-10-09T01:00:16.496Z,1020.76
2022-10-09T01:01:16.564Z,1020.78
2022-10-09T01:02:16.493Z,1020.75
2022-10-09T01:03:16.480Z,1020.79
2022-10-09T01:04:16.482Z,1020.81
2022-10-09T01:05:16.527Z,1020.81
2022-10-09T01:06:16.537Z,1020.84
2022-10-09T01:07:16.512Z,1020.82
2022-10-09T01:08:16.465Z,1020.82
2022-10-09T01:09:16.457Z,1020.85
2022-10-09T01:10:16.554Z,1020.88
2022-10-09T01:11:16.446Z,1020.87
2022-10-09T01:12:16.444Z,1020.87
2022-10-09T01:13:16.441Z,1020.90
2022-10-09T01:14:16.442Z,1020.89
2022-10-09T01:15:16.427Z,1020.89
2022-10-09T01:16:20.222Z,1020.90
2022-10-09T01:17:16.419Z,1020.91
2022-10-09T01:18:16.413Z,1020.88
2022-10-09T01:19:16.412Z,1020.90
2022-10-09T01:20:16.407Z,1020.86
2022-10-09T01:21:16.405Z,1020.87
2022-10-09T01:22:16.560Z,1020.84
2022-10-09T01:23:16.395Z,1020.84
2022-10-09T01:24:16.403Z,1020.81
2022-10-09T01:25:16.402Z,1020.85
2022-10-09T01:26:16.385Z,1020.84
2022-10-09T01:27:16.374Z,1020.80
2022-10-09T01:28:16.439Z,1020.83
2022-10-09T01:29:16.365Z,1020.85
2022-10-09T01:30:16.368Z,1020.83
2022-10-09T01:31:16.486Z,1020.84
2022-10-09T01:32:16.353Z,1020.80
2022-10-09T01:33:16.353Z,1020.76
2022-10-09T01:34:16.352Z,1020.78
2022-10-09T01:35:16.344Z,1020.78
2022-10-09T01:36:16.339Z,1020.77
2022-10-09T01:37:16.332Z,1020.72
2022-10-09T01:38:16.347Z,1020.76
2022-10-09T01:39:16.324Z,1020.74
2022-10-09T01:40:16.327Z,1020.74
2022-10-09T01:41:16.316Z,1020.72
2022-10-09T01:42:16.314Z,1020.74
2022-10-09T01:43:16.308Z,1020.72
2022-10-09T01:44:16.302Z,1020.71
2022-10-09T01:45:16.297Z,1020.70
2022-10-09T01:46:16.375Z,1020.73
2022-10-09T01:47:16.288Z,1020.73
2022-10-09T01:48:16.286Z,1020.72
2022-10-09T01:49:16.278Z,1020.71
2022-10-09T01:50:16.274Z,1020.72
2022-10-09T01:51:16.271Z,1020.70
2022-10-09T01:52:16.265Z,1020.69
2022-10-09T01:53:16.260Z,1020.67
2022-10-09T01:54:16.279Z,1020.66
2022-10-09T01:55:16.253Z,1020.66
2022-10-09T01:56:16.249Z,1020.65
2022-10-09T01:57:16.243Z,1020.63
2022-10-09T01:58:16.247Z,1020.60
2022-10-09T01:59:16.377Z,1020.60
2022-10-09T02:00:16.232Z,1020.60
2022-10-09T02:01:16.264Z,1020.59
2022-10-09T02:02:16.355Z,1020.57
2022-10-09T02:03:16.219Z,1020.53
2022-10-09T02:04:16.214Z,1020.50
2022-10-09T02:05:16.207Z,1020.50
2022-10-09T02:06:16.204Z,1020.51
2022-10-09T02:07:16.198Z,1020.51
2022-10-09T02:08:16.198Z,1020.51
2022-10-09T02:09:16.190Z,1020.49
2022-10-09T02:10:16.209Z,1020.47
2022-10-09T02:11:16.193Z,1020.44
2022-10-09T02:12:16.177Z,1020.45
2022-10-09T02:13:16.177Z,1020.44
2022-10-09T02:14:16.166Z,1020.42
2022-10-09T02:15:16.197Z,1020.43
2022-10-09T02:16:16.244Z,1020.39
2022-10-09T02:17:16.158Z,1020.38
2022-10-09T02:18:16.151Z,1020.38
2022-10-09T02:19:16.146Z,1020.40
2022-10-09T02:20:16.141Z,1020.38
2022-10-09T02:21:16.137Z,1020.35
2022-10-09T02:22:16.133Z,1020.41
2022-10-09T02:23:16.127Z,1020.38
2022-10-09T02:24:16.124Z,1020.37
2022-10-09T02:25:16.121Z,1020.33
2022-10-09T02:26:16.136Z,1020.34
2022-10-09T02:27:16.110Z,1020.36
2022-10-09T02:28:16.155Z,1020.32
2022-10-09T02:29:16.101Z,1020.34
2022-10-09T02:30:16.095Z,1020.38
2022-10-09T02:31:16.136Z,1020.36
2022-10-09T02:32:16.091Z,1020.38
2022-10-09T02:33:16.085Z,1020.33
2022-10-09T02:34:16.082Z,1020.36
2022-10-09T02:35:16.075Z,1020.34
2022-10-09T02:36:16.068Z,1020.36
2022-10-09T02:37:16.067Z,1020.37
2022-10-09T02:38:16.061Z,1020.38
2022-10-09T02:39:16.057Z,1020.37
2022-10-09T02:40:16.053Z,1020.34
2022-10-09T02:41:16.047Z,1020.36
2022-10-09T02:42:16.093Z,1020.39
2022-10-09T02:43:16.039Z,1020.37
2022-10-09T02:44:16.032Z,1020.40
2022-10-09T02:45:16.032Z,1020.39
2022-10-09T02:46:16.093Z,1020.46
2022-10-09T02:47:16.022Z,1020.43
2022-10-09T02:48:16.019Z,1020.42
2022-10-09T02:49:16.012Z,1020.42
2022-10-09T02:50:16.010Z,1020.42
2022-10-09T02:51:16.004Z,1020.43
2022-10-09T02:52:15.997Z,1020.45
2022-10-09T02:53:16.006Z,1020.42
2022-10-09T02:54:15.987Z,1020.42
2022-10-09T02:55:15.991Z,1020.42
2022-10-09T02:56:15.981Z,1020.40
2022-10-09T02:57:15.981Z,1020.39
2022-10-09T02:58:15.986Z,1020.41
2022-10-09T02:59:15.963Z,1020.39
2022-10-09T03:00:15.958Z,1020.38
2022-10-09T03:01:15.957Z,1020.38
2022-10-09T03:02:16.115Z,1020.42
2022-10-09T03:03:15.948Z,1020.35
2022-10-09T03:04:15.943Z,1020.39
2022-10-09T03:05:15.940Z,1020.38
2022-10-09T03:06:15.934Z,1020.43
2022-10-09T03:07:15.932Z,1020.41
2022-10-09T03:08:15.922Z,1020.44
2022-10-09T03:09:15.922Z,1020.38
2022-10-09T03:10:15.913Z,1020.41
2022-10-09T03:11:15.917Z,1020.37
2022-10-09T03:12:15.906Z,1020.38
2022-10-09T03:13:15.904Z,1020.34
2022-10-09T03:14:15.914Z,1020.38
2022-10-09T03:15:15.894Z,1020.39
2022-10-09T03:16:16.137Z,1020.37
2022-10-09T03:17:15.883Z,1020.37
2022-10-09T03:18:15.877Z,1020.39
2022-10-09T03:19:15.873Z,1020.38
2022-10-09T03:20:15.871Z,1020.34
2022-10-09T03:21:15.866Z,1020.33
2022-10-09T03:22:15.857Z,1020.34
2022-10-09T03:23:15.855Z,1020.32
2022-10-09T03:24:15.848Z,1020.34
2022-10-09T03:25:15.846Z,1020.33
2022-10-09T03:26:15.851Z,1020.32
2022-10-09T03:27:15.839Z,1020.33
2022-10-09T03:28:15.886Z,1020.27
2022-10-09T03:29:15.829Z,1020.33
2022-10-09T03:30:15.845Z,1020.33
2022-10-09T03:31:39.362Z,1020.31
2022-10-09T03:32:15.891Z,1020.32
2022-10-09T03:33:15.811Z,1020.32
2022-10-09T03:34:15.806Z,1020.29
2022-10-09T03:35:15.802Z,1020.29
2022-10-09T03:36:15.794Z,1020.28
2022-10-09T03:37:15.841Z,1020.27
2022-10-09T03:38:15.788Z,1020.26
2022-10-09T03:39:15.784Z,1020.31
2022-10-09T03:40:15.779Z,1020.29
2022-10-09T03:41:15.773Z,1020.26
2022-10-09T03:42:15.767Z,1020.28
2022-10-09T03:43:15.765Z,1020.26
2022-10-09T03:44:15.758Z,1020.30
2022-10-09T03:45:15.782Z,1020.30
2022-10-09T03:46:15.840Z,1020.24
2022-10-09T03:47:15.747Z,1020.23
2022-10-09T03:48:15.741Z,1020.27
2022-10-09T03:49:15.740Z,1020.21
2022-10-09T03:50:15.731Z,1020.27
2022-10-09T03:51:15.724Z,1020.22
2022-10-09T03:52:15.725Z,1020.19
2022-10-09T03:53:15.720Z,1020.17
2022-10-09T03:54:15.712Z,1020.18
2022-10-09T03:55:15.718Z,1020.17
2022-10-09T03:56:15.704Z,1020.17
2022-10-09T03:57:15.702Z,1020.14
2022-10-09T03:58:15.692Z,1020.15
2022-10-09T03:59:15.690Z,1020.18
2022-10-09T04:00:15.687Z,1020.19
2022-10-09T04:01:15.844Z,1020.16
2022-10-09T04:02:15.779Z,1020.15
2022-10-09T04:03:15.670Z,1020.18
2022-10-09T04:04:15.662Z,1020.19
2022-10-09T04:05:15.666Z,1020.19
2022-10-09T04:06:15.663Z,1020.18
2022-10-09T04:07:15.652Z,1020.23
2022-10-09T04:08:15.646Z,1020.18
2022-10-09T04:09:15.644Z,1020.18
2022-10-09T04:10:15.637Z,1020.20
2022-10-09T04:11:15.636Z,1020.19
2022-10-09T04:12:15.630Z,1020.20
2022-10-09T04:13:15.626Z,1020.19
2022-10-09T04:14:15.619Z,1020.23
2022-10-09T04:15:15.620Z,1020.20
2022-10-09T04:16:15.683Z,1020.21
2022-10-09T04:17:15.608Z,1020.21
2022-10-09T04:18:15.618Z,1020.22
2022-10-09T04:19:15.597Z,1020.22
2022-10-09T04:20:15.589Z,1020.18
2022-10-09T04:21:15.588Z,1020.22
2022-10-09T04:22:15.580Z,1020.27
2022-10-09T04:23:15.576Z,1020.21
2022-10-09T04:24:15.570Z,1020.24
2022-10-09T04:25:15.573Z,1020.23
2022-10-09T04:26:15.563Z,1020.29
2022-10-09T04:27:15.562Z,1020.24
2022-10-09T04:28:15.585Z,1020.18
2022-10-09T04:29:15.550Z,1020.23
2022-10-09T04:30:15.541Z,1020.26
2022-10-09T04:31:15.578Z,1020.19
2022-10-09T04:32:15.583Z,1020.20
2022-10-09T04:33:15.534Z,1020.21
2022-10-09T04:34:15.543Z,1020.17
2022-10-09T04:35:15.519Z,1020.19
2022-10-09T04:36:15.515Z,1020.19
2022-10-09T04:37:15.609Z,1020.14
2022-10-09T04:38:15.513Z,1020.16
2022-10-09T04:39:15.503Z,1020.12
2022-10-09T04:40:15.495Z,1020.11
2022-10-09T04:41:15.490Z,1020.11
2022-10-09T04:42:15.636Z,1020.12
2022-10-09T04:43:15.482Z,1020.13
2022-10-09T04:44:15.481Z,1020.12
2022-10-09T04:45:15.475Z,1020.10
2022-10-09T04:46:15.510Z,1020.03
2022-10-09T04:47:15.461Z,1020.05
2022-10-09T04:48:15.458Z,1020.03
2022-10-09T04:49:15.451Z,1020.00
2022-10-09T04:50:15.467Z,1019.99
2022-10-09T04:51:15.442Z,1019.98
2022-10-09T04:52:15.439Z,1019.99
2022-10-09T04:53:15.437Z,1019.97
2022-10-09T04:54:15.427Z,1020.00
2022-10-09T04:55:15.422Z,1019.94
2022-10-09T04:56:15.427Z,1019.98
2022-10-09T04:57:15.416Z,1019.98
2022-10-09T04:58:15.410Z,1019.96
2022-10-09T04:59:15.405Z,1019.95
2022-10-09T05:00:15.400Z,1019.98
2022-10-09T05:01:15.475Z,1020.00
2022-10-09T05:02:15.454Z,1019.95
2022-10-09T05:03:15.385Z,1019.96
2022-10-09T05:04:15.379Z,1019.93
2022-10-09T05:05:15.377Z,1019.92
2022-10-09T05:06:15.388Z,1019.91
2022-10-09T05:07:15.366Z,1019.90
2022-10-09T05:08:15.360Z,1019.89
2022-10-09T05:09:15.363Z,1019.85
2022-10-09T05:10:15.351Z,1019.92
2022-10-09T05:11:15.348Z,1019.88
2022-10-09T05:12:15.341Z,1019.85
2022-10-09T05:13:15.337Z,1019.89
2022-10-09T05:14:15.333Z,1019.86
2022-10-09T05:15:15.328Z,1019.82
2022-10-09T05:16:15.381Z,1019.83
2022-10-09T05:17:16.533Z,1019.86
2022-10-09T05:18:15.312Z,1019.86
2022-10-09T05:19:15.310Z,1019.86
2022-10-09T05:20:15.302Z,1019.87
2022-10-09T05:21:15.304Z,1019.86
2022-10-09T05:22:15.312Z,1019.86
2022-10-09T05:23:15.290Z,1019.86
2022-10-09T05:24:15.284Z,1019.86
2022-10-09T05:25:15.282Z,1019.89
2022-10-09T05:26:15.276Z,1019.90
2022-10-09T05:27:15.275Z,1019.94
2022-10-09T05:28:15.372Z,1019.92
2022-10-09T05:29:15.262Z,1019.92
2022-10-09T05:30:15.253Z,1019.90
2022-10-09T05:31:15.273Z,1019.89
2022-10-09T05:32:15.248Z,1019.91
2022-10-09T05:33:15.252Z,1019.91
2022-10-09T05:34:15.238Z,1019.90
2022-10-09T05:35:15.233Z,1019.89
2022-10-09T05:36:15.227Z,1019.91
2022-10-09T05:37:15.223Z,1019.92
2022-10-09T05:38:15.233Z,1019.92
2022-10-09T05:39:15.214Z,1019.91
2022-10-09T05:40:15.210Z,1019.86
2022-10-09T05:41:15.209Z,1019.89
2022-10-09T05:42:15.196Z,1019.87
2022-10-09T05:43:15.198Z,1019.86
2022-10-09T05:44:15.188Z,1019.91
2022-10-09T05:45:15.185Z,1019.92
2022-10-09T05:46:15.270Z,1019.92
2022-10-09T05:47:15.174Z,1019.92
2022-10-09T05:48:15.169Z,1019.92
2022-10-09T05:49:15.179Z,1019.89
2022-10-09T05:50:15.161Z,1019.90
2022-10-09T05:51:15.161Z,1019.90
2022-10-09T05:52:15.151Z,1019.85
2022-10-09T05:53:15.152Z,1019.87
2022-10-09T05:54:15.158Z,1019.91
2022-10-09T05:55:15.136Z,1019.88
2022-10-09T05:56:15.130Z,1019.88
2022-10-09T05:57:15.128Z,1019.90
2022-10-09T05:58:15.122Z,1019.85
2022-10-09T05:59:15.128Z,1019.84
2022-10-09T06:00:15.127Z,1019.87
2022-10-09T06:01:15.177Z,1019.88
2022-10-09T06:02:15.131Z,1019.85
2022-10-09T06:03:15.102Z,1019.84
2022-10-09T06:04:15.095Z,1019.84
2022-10-09T06:05:15.087Z,1019.79
2022-10-09T06:06:15.082Z,1019.83
2022-10-09T06:07:15.077Z,1019.84
2022-10-09T06:08:15.072Z,1019.85
2022-10-09T06:09:15.071Z,1019.85
2022-10-09T06:10:15.081Z,1019.86
2022-10-09T06:11:15.063Z,1019.88
2022-10-09T06:12:15.058Z,1019.91
2022-10-09T06:13:15.057Z,1019.93
2022-10-09T06:14:15.048Z,1019.92
2022-10-09T06:15:15.044Z,1019.95
2022-10-09T06:16:15.096Z,1019.91
2022-10-09T06:17:15.035Z,1019.87
2022-10-09T06:18:15.023Z,1019.88
2022-10-09T06:19:15.023Z,1019.87
2022-10-09T06:20:15.017Z,1019.89
2022-10-09T06:21:15.017Z,1019.91
2022-10-09T06:22:15.005Z,1019.92
2022-10-09T06:23:15.005Z,1019.96
2022-10-09T06:24:14.996Z,1019.97
2022-10-09T06:25:14.992Z,1019.98
2022-10-09T06:26:15.002Z,1019.96
2022-10-09T06:27:14.985Z,1019.96
2022-10-09T06:28:15.052Z,1019.98
2022-10-09T06:29:14.974Z,1019.97
2022-10-09T06:30:14.973Z,1019.99
2022-10-09T06:31:14.999Z,1020.02
2022-10-09T06:32:14.958Z,1020.02
2022-10-09T06:33:14.951Z,1020.01
2022-10-09T06:34:14.947Z,1020.01
2022-10-09T06:35:14.943Z,1019.98
2022-10-09T06:36:14.938Z,1019.97
2022-10-09T06:37:14.935Z,1020.00
2022-10-09T06:38:14.930Z,1020.00
2022-10-09T06:39:14.924Z,1020.02
2022-10-09T06:40:14.920Z,1020.03
2022-10-09T06:41:14.916Z,1020.04
2022-10-09T06:42:14.929Z,1020.02
2022-10-09T06:43:14.903Z,1020.02
2022-10-09T06:44:16.829Z,1020.03
2022-10-09T06:45:14.895Z,1020.03
2022-10-09T06:46:14.967Z,1020.01
2022-10-09T06:47:14.883Z,1020.03
2022-10-09T06:48:14.885Z,1020.02
2022-10-09T06:49:14.877Z,1020.03
2022-10-09T06:50:14.873Z,1020.04
2022-10-09T06:51:14.866Z,1020.02
2022-10-09T06:52:14.863Z,1020.03
2022-10-09T06:53:14.856Z,1020.01
2022-10-09T06:54:14.851Z,1020.03
2022-10-09T06:55:14.848Z,1019.98
2022-10-09T06:56:14.842Z,1019.99
2022-10-09T06:57:14.837Z,1019.97
2022-10-09T06:58:14.886Z,1020.02
2022-10-09T06:59:15.049Z,1020.00
2022-10-09T07:00:14.831Z,1019.96
2022-10-09T07:01:14.936Z,1019.99
2022-10-09T07:02:14.844Z,1019.98
2022-10-09T07:03:14.876Z,1019.99
2022-10-09T07:04:14.806Z,1020.01
2022-10-09T07:05:14.804Z,1020.01
2022-10-09T07:06:14.801Z,1020.02
2022-10-09T07:07:14.788Z,1020.01
2022-10-09T07:08:14.796Z,1020.03
2022-10-09T07:09:14.782Z,1020.03
2022-10-09T07:10:14.779Z,1020.03
2022-10-09T07:11:14.772Z,1020.05
2022-10-09T07:12:14.769Z,1020.04
2022-10-09T07:13:14.763Z,1020.03
2022-10-09T07:14:14.774Z,1020.02
2022-10-09T07:15:14.753Z,1020.03
2022-10-09T07:16:14.795Z,1020.04
2022-10-09T07:17:14.743Z,1020.07
2022-10-09T07:18:14.739Z,1020.06
2022-10-09T07:19:14.738Z,1020.07
2022-10-09T07:20:14.733Z,1020.10
2022-10-09T07:21:14.727Z,1020.04
2022-10-09T07:22:14.720Z,1020.01
2022-10-09T07:23:14.715Z,1020.08
2022-10-09T07:24:14.712Z,1020.08
2022-10-09T07:25:14.706Z,1020.06
2022-10-09T07:26:14.701Z,1020.11
2022-10-09T07:27:14.699Z,1020.09
2022-10-09T07:28:14.767Z,1020.10
2022-10-09T07:29:14.689Z,1020.10
2022-10-09T07:30:14.703Z,1020.11
2022-10-09T07:31:14.920Z,1020.08
2022-10-09T07:32:14.678Z,1020.11
2022-10-09T07:33:14.674Z,1020.15
2022-10-09T07:34:14.673Z,1020.16
2022-10-09T07:35:14.661Z,1020.19
2022-10-09T07:36:14.659Z,1020.14
2022-10-09T07:37:14.654Z,1020.11
2022-10-09T07:38:14.650Z,1020.09
2022-10-09T07:39:14.648Z,1020.13
2022-10-09T07:40:14.647Z,1020.13
2022-10-09T07:41:14.640Z,1020.11
2022-10-09T07:42:14.631Z,1020.13
2022-10-09T07:43:14.630Z,1020.14
2022-10-09T07:44:14.627Z,1020.18
2022-10-09T07:45:14.624Z,1020.23
2022-10-09T07:46:14.867Z,1020.27
2022-10-09T07:47:14.616Z,1020.31
2022-10-09T07:48:14.609Z,1020.31
2022-10-09T07:49:14.611Z,1020.29
2022-10-09T07:50:14.602Z,1020.30
2022-10-09T07:51:14.597Z,1020.30
2022-10-09T07:52:14.596Z,1020.25
2022-10-09T07:53:14.592Z,1020.20
2022-10-09T07:54:14.589Z,1020.18
2022-10-09T07:55:14.582Z,1020.17
2022-10-09T07:56:14.585Z,1020.15
2022-10-09T07:57:14.573Z,1020.13
2022-10-09T07:58:14.575Z,1020.11
2022-10-09T07:59:14.569Z,1020.05
2022-10-09T08:00:14.563Z,1020.03
2022-10-09T08:01:19.660Z,1020.05
2022-10-09T08:02:14.628Z,1020.01
2022-10-09T08:03:14.552Z,1020.02
2022-10-09T08:04:14.551Z,1020.00
2022-10-09T08:05:14.551Z,1019.95
2022-10-09T08:06:14.548Z,1019.90
2022-10-09T08:07:14.536Z,1019.95
2022-10-09T08:08:14.536Z,1019.90
2022-10-09T08:09:14.534Z,1019.91
2022-10-09T08:10:14.532Z,1019.92
2022-10-09T08:11:14.524Z,1019.89
2022-10-09T08:12:14.521Z,1019.88
2022-10-09T08:13:14.517Z,1019.82
2022-10-09T08:14:19.078Z,1019.86
2022-10-09T08:15:14.517Z,1019.84
2022-10-09T08:16:14.594Z,1019.83
2022-10-09T08:17:14.501Z,1019.84
2022-10-09T08:18:14.516Z,1019.83
2022-10-09T08:19:14.494Z,1019.82
2022-10-09T08:20:14.491Z,1019.82
2022-10-09T08:21:14.486Z,1019.87
2022-10-09T08:22:14.482Z,1019.88
2022-10-09T08:23:14.477Z,1019.88
2022-10-09T08:24:14.477Z,1019.88
2022-10-09T08:25:14.472Z,1019.88
2022-10-09T08:26:14.475Z,1019.89
2022-10-09T08:27:14.466Z,1019.91
2022-10-09T08:28:14.511Z,1019.90
2022-10-09T08:29:14.470Z,1019.91
2022-10-09T08:30:14.462Z,1019.91
2022-10-09T08:31:14.510Z,1019.90
2022-10-09T08:32:14.449Z,1019.91
2022-10-09T08:33:14.442Z,1019.88
2022-10-09T08:34:14.463Z,1019.86
2022-10-09T08:35:14.443Z,1019.85
2022-10-09T08:36:14.456Z,1019.89
2022-10-09T08:37:14.433Z,1019.90
2022-10-09T08:38:30.954Z,1019.87
2022-10-09T08:39:14.424Z,1019.87
2022-10-09T08:40:14.420Z,1019.82
2022-10-09T08:41:14.414Z,1019.81
2022-10-09T08:42:14.409Z,1019.81
2022-10-09T08:43:14.404Z,1019.78
2022-10-09T08:44:14.405Z,1019.79
2022-10-09T08:45:14.400Z,1019.75
2022-10-09T08:46:17.186Z,1019.75
2022-10-09T08:47:14.390Z,1019.76
2022-10-09T08:48:14.391Z,1019.78
2022-10-09T08:49:14.383Z,1019.75
2022-10-09T08:50:14.402Z,1019.70
2022-10-09T08:51:14.376Z,1019.70
2022-10-09T08:52:14.376Z,1019.69
2022-10-09T08:53:14.368Z,1019.70
2022-10-09T08:54:14.364Z,1019.70
2022-10-09T08:55:14.360Z,1019.70
2022-10-09T08:56:14.362Z,1019.69
2022-10-09T08:57:14.357Z,1019.69
2022-10-09T08:58:14.353Z,1019.63
2022-10-09T08:59:14.348Z,1019.65
2022-10-09T09:00:14.469Z,1019.61
2022-10-09T09:01:14.390Z,1019.65
2022-10-09T09:02:14.342Z,1019.63
2022-10-09T09:03:14.387Z,1019.62
2022-10-09T09:04:14.331Z,1019.59
2022-10-09T09:05:14.324Z,1019.60
2022-10-09T09:06:14.348Z,1019.62
2022-10-09T09:07:14.321Z,1019.57
2022-10-09T09:08:14.314Z,1019.52
2022-10-09T09:09:14.312Z,1019.46
2022-10-09T09:10:14.312Z,1019.50
2022-10-09T09:11:17.120Z,1019.48
2022-10-09T09:12:14.324Z,1019.48
2022-10-09T09:13:14.310Z,1019.49
2022-10-09T09:14:14.297Z,1019.52
2022-10-09T09:15:14.302Z,1019.45
2022-10-09T09:16:14.313Z,1019.43
2022-10-09T09:17:14.286Z,1019.43
2022-10-09T09:18:14.281Z,1019.41
2022-10-09T09:19:14.275Z,1019.40
2022-10-09T09:20:14.272Z,1019.41
2022-10-09T09:21:14.266Z,1019.41
2022-10-09T09:22:14.282Z,1019.40
2022-10-09T09:23:14.260Z,1019.38
2022-10-09T09:24:14.257Z,1019.36
2022-10-09T09:25:14.254Z,1019.38
2022-10-09T09:26:14.256Z,1019.35
2022-10-09T09:27:14.260Z,1019.32
2022-10-09T09:28:14.271Z,1019.34
2022-10-09T09:29:14.412Z,1019.33
2022-10-09T09:30:14.241Z,1019.26
2022-10-09T09:31:14.386Z,1019.27
2022-10-09T09:32:14.229Z,1019.22
2022-10-09T09:33:14.225Z,1019.23
2022-10-09T09:34:14.235Z,1019.21
2022-10-09T09:35:14.221Z,1019.20
2022-10-09T09:36:14.219Z,1019.19
2022-10-09T09:37:14.221Z,1019.18
2022-10-09T09:38:14.228Z,1019.14
2022-10-09T09:41:14.204Z,1019.10
2022-10-09T09:42:14.200Z,1019.05
2022-10-09T09:43:14.191Z,1019.04
2022-10-09T09:44:14.191Z,1019.04
2022-10-09T09:45:14.185Z,1019.00
2022-10-09T09:46:14.241Z,1019.03
2022-10-09T09:47:14.180Z,1019.04
2022-10-09T09:48:14.179Z,1019.00
2022-10-09T09:49:14.173Z,1019.00
2022-10-09T09:50:28.800Z,1018.99
2022-10-09T09:51:27.917Z,1018.98
2022-10-09T09:52:14.168Z,1018.95
2022-10-09T09:53:14.161Z,1018.94
2022-10-09T09:54:14.177Z,1018.95
2022-10-09T09:55:14.154Z,1018.94
2022-10-09T09:56:14.150Z,1018.89
2022-10-09T09:57:18.206Z,1018.97
2022-10-09T09:58:14.144Z,1018.93
2022-10-09T09:59:14.142Z,1018.92
2022-10-09T10:00:14.137Z,1018.86
2022-10-09T10:01:14.234Z,1018.81
2022-10-09T10:02:14.226Z,1018.80
2022-10-09T10:03:14.126Z,1018.78
2022-10-09T10:04:14.131Z,1018.75
2022-10-09T10:05:14.129Z,1018.77
2022-10-09T10:06:14.125Z,1018.75
2022-10-09T10:07:14.115Z,1018.74
2022-10-09T10:08:14.113Z,1018.77
2022-10-09T10:09:14.113Z,1018.76
2022-10-09T10:10:14.126Z,1018.71
2022-10-09T10:11:14.104Z,1018.75
2022-10-09T10:12:14.100Z,1018.71
2022-10-09T10:13:14.099Z,1018.72
2022-10-09T10:14:14.099Z,1018.72
2022-10-09T10:15:14.094Z,1018.66
2022-10-09T10:16:14.199Z,1018.67
2022-10-09T10:17:16.496Z,1018.65
2022-10-09T10:18:14.100Z,1018.63
2022-10-09T10:19:14.076Z,1018.65
2022-10-09T10:20:14.081Z,1018.65
2022-10-09T10:21:14.086Z,1018.65
2022-10-09T10:22:14.079Z,1018.66
2022-10-09T10:23:14.081Z,1018.66
2022-10-09T10:24:14.074Z,1018.63
2022-10-09T10:25:16.084Z,1018.63
2022-10-09T10:26:14.095Z,1018.65
2022-10-09T10:27:14.054Z,1018.61
2022-10-09T10:28:14.094Z,1018.63
2022-10-09T10:29:14.096Z,1018.62
2022-10-09T10:30:14.047Z,1018.63
2022-10-09T10:31:14.128Z,1018.61
2022-10-09T10:32:14.042Z,1018.55
2022-10-09T10:33:14.045Z,1018.55
2022-10-09T10:34:14.044Z,1018.54
2022-10-09T10:35:14.035Z,1018.53
2022-10-09T10:36:14.027Z,1018.51
2022-10-09T10:37:14.023Z,1018.50
2022-10-09T10:38:14.022Z,1018.50
2022-10-09T10:39:14.017Z,1018.49
2022-10-09T10:40:14.015Z,1018.47
2022-10-09T10:41:14.014Z,1018.42
2022-10-09T10:42:14.030Z,1018.39
2022-10-09T10:43:14.007Z,1018.40
2022-10-09T10:44:14.010Z,1018.38
2022-10-09T10:45:14.010Z,1018.38
2022-10-09T10:46:14.072Z,1018.33
2022-10-09T10:47:14.003Z,1018.32
2022-10-09T10:48:14.011Z,1018.28
2022-10-09T10:49:14.001Z,1018.29
2022-10-09T10:50:13.989Z,1018.28
2022-10-09T10:51:13.987Z,1018.26
2022-10-09T10:52:13.982Z,1018.28
2022-10-09T10:53:13.979Z,1018.22
2022-10-09T10:54:13.975Z,1018.19
2022-10-09T10:55:13.978Z,1018.19
2022-10-09T10:56:13.973Z,1018.15
2022-10-09T10:57:13.971Z,1018.17
2022-10-09T10:58:14.017Z,1018.19
2022-10-09T10:59:13.961Z,1018.15
2022-10-09T11:00:13.959Z,1018.17
2022-10-09T11:01:14.031Z,1018.08
2022-10-09T11:02:13.952Z,1018.12
2022-10-09T11:03:13.996Z,1018.09
2022-10-09T11:04:13.948Z,1018.07
2022-10-09T11:05:13.950Z,1018.10
2022-10-09T11:06:13.944Z,1018.08
2022-10-09T11:07:13.944Z,1018.06
2022-10-09T11:08:13.938Z,1018.03
2022-10-09T11:09:13.937Z,1017.98
2022-10-09T11:10:13.936Z,1017.99
2022-10-09T11:11:13.931Z,1017.99
2022-10-09T11:12:24.775Z,1017.99
2022-10-09T11:13:13.925Z,1017.97
2022-10-09T11:14:17.912Z,1017.98
2022-10-09T11:15:13.919Z,1017.94
2022-10-09T11:16:13.995Z,1017.93
2022-10-09T11:17:13.916Z,1017.92
2022-10-09T11:18:13.914Z,1017.92
2022-10-09T11:19:13.912Z,1017.87
2022-10-09T11:20:13.907Z,1017.86
2022-10-09T11:21:13.905Z,1017.80
2022-10-09T11:22:13.900Z,1017.76
2022-10-09T11:23:13.898Z,1017.78
2022-10-09T11:24:13.896Z,1017.74
2022-10-09T11:25:13.895Z,1017.71
2022-10-09T11:26:13.898Z,1017.68
2022-10-09T11:27:13.892Z,1017.67
2022-10-09T11:28:13.953Z,1017.66
2022-10-09T11:29:13.884Z,1017.67
2022-10-09T11:30:13.899Z,1017.67
2022-10-09T11:31:13.941Z,1017.63
2022-10-09T11:32:13.875Z,1017.63
2022-10-09T11:33:13.876Z,1017.61
2022-10-09T11:34:13.869Z,1017.59
2022-10-09T11:35:13.871Z,1017.57
2022-10-09T11:36:13.867Z,1017.55
2022-10-09T11:37:13.866Z,1017.61
2022-10-09T11:38:13.861Z,1017.55
2022-10-09T11:39:13.860Z,1017.49
2022-10-09T11:40:13.860Z,1017.46
2022-10-09T11:41:13.854Z,1017.45
2022-10-09T11:42:13.852Z,1017.42
2022-10-09T11:43:13.846Z,1017.44
2022-10-09T11:44:13.845Z,1017.46
2022-10-09T11:45:13.844Z,1017.41
2022-10-09T11:46:13.914Z,1017.43
2022-10-09T11:47:13.839Z,1017.36
2022-10-09T11:48:13.839Z,1017.33
2022-10-09T11:49:13.833Z,1017.37
2022-10-09T11:50:13.830Z,1017.33
2022-10-09T11:51:13.829Z,1017.32
2022-10-09T11:52:13.824Z,1017.31
2022-10-09T11:53:13.821Z,1017.30
2022-10-09T11:54:13.822Z,1017.30
2022-10-09T11:55:13.818Z,1017.21
2022-10-09T11:56:13.817Z,1017.23
2022-10-09T11:57:15.427Z,1017.24
2022-10-09T11:58:13.812Z,1017.21
2022-10-09T11:59:13.811Z,1017.17
2022-10-09T12:00:13.806Z,1017.14
2022-10-09T12:01:13.885Z,1017.15
2022-10-09T12:02:13.868Z,1017.13
2022-10-09T12:03:13.810Z,1017.11
2022-10-09T12:04:13.804Z,1017.09
2022-10-09T12:05:13.792Z,1017.13
2022-10-09T12:06:13.789Z,1017.12
2022-10-09T12:07:13.787Z,1017.08